Time;durP1;ratioP1;P1;durP2;ratioP2;P2;SDS_P1;SDS_P2;PMS_P1;PMS_P2;Temp;Humidity;BMP_temperature;BMP_pressure;BME280_temperature;BME280_humidity;BME280_pressure;Samples;Min_cycle;Max_cycle;Signal;HPM_P1;HPM_P2
2022/12/12 00:02:40;;;;;;;0.20;0.20;;;;;;;-0.89;100.00;101386.97;10464989;28;20103;-82
2022/12/12 00:07:42;;;;;;;0.17;0.17;;;;;;;-0.79;100.00;101384.44;10478695;28;20380;-81
2022/12/12 00:12:43;;;;;;;0.15;0.15;;;;;;;-0.80;100.00;101385.19;10472511;28;20086;-81
2022/12/12 00:17:45;;;;;;;0.10;0.10;;;;;;;-0.80;100.00;101385.19;10462565;28;20044;-82
2022/12/12 00:22:47;;;;;;;0.88;0.73;;;;;;;-0.89;100.00;101381.91;10457248;28;20037;-81
2022/12/12 00:27:49;;;;;;;0.00;0.00;;;;;;;-0.86;100.00;101388.09;10470959;28;20415;-81
2022/12/12 00:32:50;;;;;;;3.47;0.68;;;;;;;-0.79;100.00;101399.59;10472270;28;20045;-81
2022/12/12 00:37:52;;;;;;;0.63;0.63;;;;;;;-0.90;100.00;101398.75;10460919;28;20143;-81
2022/12/12 00:42:54;;;;;;;0.40;0.40;;;;;;;-0.89;100.00;101395.44;10499418;28;20037;-81
2022/12/12 00:47:55;;;;;;;0.30;0.30;;;;;;;-0.94;100.00;101399.25;10479477;28;20048;-81
2022/12/12 00:52:57;;;;;;;0.70;0.70;;;;;;;-0.97;100.00;101397.38;10493850;28;20060;-81
2022/12/12 00:57:59;;;;;;;0.77;0.15;;;;;;;-0.85;100.00;101405.06;10480968;28;20048;-81
2022/12/12 01:03:01;;;;;;;0.05;0.05;;;;;;;-1.00;100.00;101399.63;10466238;28;20114;-81
2022/12/12 01:08:02;;;;;;;0.00;0.00;;;;;;;-0.77;100.00;101410.72;10510041;28;20041;-81
2022/12/12 01:13:04;;;;;;;0.00;0.00;;;;;;;-0.82;100.00;101409.47;10484143;28;20048;-81
2022/12/12 01:18:06;;;;;;;0.10;0.05;;;;;;;-0.90;100.00;101406.34;10486343;28;20079;-81
2022/12/12 01:23:08;;;;;;;0.30;0.30;;;;;;;-0.98;100.00;101422.53;10471737;28;20138;-81
2022/12/12 01:28:10;;;;;;;0.40;0.30;;;;;;;-1.00;100.00;101414.81;10474351;28;20083;-81
2022/12/12 01:33:14;;;;;;;0.00;0.00;;;;;;;-1.02;100.00;101416.34;10474313;28;20095;-81
2022/12/12 01:38:15;;;;;;;0.55;0.55;;;;;;;-0.99;100.00;101425.84;10457001;28;20040;-81
2022/12/12 01:43:20;;;;;;;0.13;0.13;;;;;;;-0.96;100.00;101426.06;10478702;28;20495;-82
2022/12/12 01:48:27;;;;;;;0.20;0.20;;;;;;;-0.88;100.00;101419.97;10467075;28;20059;-81
2022/12/12 01:53:31;;;;;;;0.20;0.20;;;;;;;-0.89;100.00;101419.88;10475590;28;20044;-81
2022/12/12 01:58:33;;;;;;;2.22;0.73;;;;;;;-0.86;100.00;101418.47;10472219;28;20052;-81
2022/12/12 02:03:38;;;;;;;0.73;0.73;;;;;;;-0.80;100.00;101420.59;10474811;28;20048;-81
2022/12/12 02:08:40;;;;;;;0.10;0.10;;;;;;;-0.83;100.00;101422.88;10484517;28;20454;-81
2022/12/12 02:13:42;;;;;;;0.20;0.20;;;;;;;-0.86;100.00;101422.66;10477605;28;20044;-81
2022/12/12 02:19:01;;;;;;;1.05;0.32;;;;;;;-0.89;100.00;101422.38;10476374;28;20044;-81
2022/12/12 02:24:12;;;;;;;0.03;0.03;;;;;;;-0.86;100.00;101415.06;10473418;28;20052;-81
2022/12/12 02:29:40;;;;;;;0.00;0.00;;;;;;;-0.90;100.00;101431.63;10463274;28;20045;-80
2022/12/12 02:34:54;;;;;;;0.22;0.22;;;;;;;-0.86;100.00;101422.66;10477883;28;20037;-81
2022/12/12 02:40:10;;;;;;;0.15;0.15;;;;;;;-0.87;100.00;101423.41;10466197;28;20563;-82
2022/12/12 02:45:30;;;;;;;0.55;0.55;;;;;;;-0.87;100.00;101420.88;10468311;28;20052;-82
2022/12/12 02:50:32;;;;;;;0.25;0.25;;;;;;;-0.87;100.00;101426.81;10476439;28;20063;-81
2022/12/12 02:55:34;;;;;;;0.10;0.10;;;;;;;-0.79;100.00;101422.38;10473684;28;20465;-81
2022/12/12 03:00:51;;;;;;;0.85;0.28;;;;;;;-0.75;100.00;101424.38;10466043;28;20106;-81
2022/12/12 03:11:54;;;;;;;1.35;0.95;;;;;;;-0.84;100.00;101421.09;10518277;28;20031;-81
2022/12/12 03:17:24;;;;;;;2.38;0.45;;;;;;;-0.77;100.00;101423.38;10514663;28;20048;-81
2022/12/12 03:22:53;;;;;;;0.10;0.10;;;;;;;-0.83;100.00;101422.88;10470996;28;20483;-81
2022/12/12 03:28:04;;;;;;;0.40;0.40;;;;;;;-0.73;100.00;101425.41;10494536;28;20052;-81
2022/12/12 03:33:21;;;;;;;0.20;0.20;;;;;;;-0.76;100.00;101419.22;10484884;28;20036;-81
2022/12/12 03:38:28;;;;;;;0.08;0.08;;;;;;;-0.83;100.00;101418.72;10495181;28;20048;-81
2022/12/12 03:43:43;;;;;;;0.00;0.00;;;;;;;-0.80;100.00;101425.66;10493852;28;20072;-81
2022/12/12 03:48:58;;;;;;;0.10;0.10;;;;;;;-0.74;100.00;101427.78;10484376;28;20064;-81
2022/12/12 03:54:22;;;;;;;2.55;1.20;;;;;;;-0.76;100.00;101419.22;10486455;28;20072;-81
2022/12/12 03:59:48;;;;;;;1.45;0.93;;;;;;;-0.82;100.00;101427.19;10477913;28;20048;-81
2022/12/12 04:04:59;;;;;;;0.00;0.00;;;;;;;-0.78;100.00;101430.84;10496687;28;20060;-81
2022/12/12 04:15:53;;;;;;;0.08;0.08;;;;;;;-0.81;100.00;101431.47;10504452;28;20131;-81
2022/12/12 04:26:39;;;;;;;1.23;0.85;;;;;;;-0.80;100.00;101433.25;10484348;28;20036;-81
2022/12/12 04:32:11;;;;;;;0.70;0.63;;;;;;;-0.82;100.00;101440.69;10485413;28;20049;-81
2022/12/12 04:37:18;;;;;;;0.00;0.00;;;;;;;-0.80;100.00;101443.38;10479877;28;20041;-81
2022/12/12 04:42:24;;;;;;;2.00;1.08;;;;;;;-0.85;100.00;101454.75;10480987;28;20044;-81
2022/12/12 04:47:29;;;;;;;0.17;0.17;;;;;;;-0.91;100.00;101459.31;10481275;28;20049;-81
2022/12/12 04:52:33;;;;;;;0.03;0.03;;;;;;;-0.96;100.00;101464.91;10473714;28;20048;-81
2022/12/12 04:57:42;;;;;;;0.10;0.10;;;;;;;-0.94;100.00;101464.16;10480721;28;20044;-81
2022/12/12 05:02:49;;;;;;;0.17;0.17;;;;;;;-0.99;100.00;101468.84;10475403;28;20499;-81
2022/12/12 05:07:56;;;;;;;0.20;0.20;;;;;;;-1.02;100.00;101472.00;10475739;28;20044;-81
2022/12/12 05:13:01;;;;;;;0.35;0.35;;;;;;;-1.14;100.00;101470.97;10452903;28;20064;-81
2022/12/12 05:18:06;;;;;;;0.30;0.30;;;;;;;-1.19;100.00;101489.94;10469068;28;20056;-81
2022/12/12 05:23:08;;;;;;;0.10;0.10;;;;;;;-1.14;100.00;101484.50;10493474;28;20053;-81
2022/12/12 05:28:10;;;;;;;0.38;0.38;;;;;;;-1.16;100.00;101482.63;10444212;28;20044;-80
2022/12/12 05:33:12;;;;;;;0.40;0.40;;;;;;;-1.18;100.00;101490.06;10464981;28;20033;-81
2022/12/12 05:38:14;;;;;;;0.80;0.80;;;;;;;-1.20;100.00;101490.69;10466511;28;20053;-80
2022/12/12 05:43:15;;;;;;;0.28;0.28;;;;;;;-1.20;100.00;101495.75;10479029;28;20498;-81
2022/12/12 05:48:17;;;;;;;0.57;0.22;;;;;;;-1.15;100.00;101489.44;10456704;28;20108;-81
2022/12/12 05:53:25;;;;;;;0.25;0.25;;;;;;;-1.19;100.00;101492.47;10464673;28;20087;-81
2022/12/12 05:58:28;;;;;;;0.88;0.45;;;;;;;-1.18;100.00;101491.72;10464754;28;20591;-81
2022/12/12 06:03:31;;;;;;;3.97;1.10;;;;;;;-1.14;100.00;101506.38;10478547;28;20072;-81
2022/12/12 06:08:32;;;;;;;0.10;0.10;;;;;;;-1.20;100.00;101510.94;10478092;28;20551;-81
2022/12/12 06:13:35;;;;;;;1.20;0.80;;;;;;;-1.08;100.00;101506.88;10463728;28;20036;-81
2022/12/12 06:18:37;;;;;;;0.95;0.90;;;;;;;-1.09;100.00;101509.28;10478478;28;20072;-81
2022/12/12 06:23:40;;;;;;;0.10;0.10;;;;;;;-1.17;100.00;101506.13;10477724;28;20093;-81
2022/12/12 06:28:42;;;;;;;0.00;0.00;;;;;;;-1.13;100.00;101513.22;10451076;28;20052;-81
2022/12/12 06:33:44;;;;;;;0.38;0.38;;;;;;;-1.17;100.00;101517.13;10471612;28;20044;-81
2022/12/12 06:38:45;;;;;;;0.03;0.03;;;;;;;-1.26;100.00;101515.47;10468919;28;20068;-81
2022/12/12 06:43:47;;;;;;;0.65;0.60;;;;;;;-1.24;100.00;101527.47;10476128;28;20447;-81
2022/12/12 06:48:49;;;;;;;0.30;0.30;;;;;;;-1.17;100.00;101526.38;10453223;28;20041;-81
2022/12/12 06:53:51;;;;;;;0.10;0.10;;;;;;;-1.13;100.00;101533.44;10448026;28;20052;-81
2022/12/12 06:58:54;;;;;;;0.88;0.82;;;;;;;-1.31;100.00;101527.72;10448932;28;20106;-81
2022/12/12 07:03:57;;;;;;;1.00;0.57;;;;;;;-1.53;100.00;101536.03;10471831;28;20036;-81
2022/12/12 07:08:59;;;;;;;0.32;0.22;;;;;;;-1.54;100.00;101543.50;10502919;28;20054;-81
2022/12/12 07:14:04;;;;;;;0.43;0.43;;;;;;;-1.46;100.00;101547.56;10509320;28;20570;-81
2022/12/12 07:19:06;;;;;;;0.10;0.10;;;;;;;-1.46;100.00;101545.91;10478801;28;20429;-81
2022/12/12 07:24:08;;;;;;;0.90;0.55;;;;;;;-1.54;100.00;101538.44;10470926;28;20043;-81
2022/12/12 07:29:10;;;;;;;0.57;0.57;;;;;;;-1.55;100.00;101552.69;10476378;28;20083;-81
2022/12/12 07:34:11;;;;;;;0.15;0.15;;;;;;;-1.58;100.00;101554.09;10461333;28;20470;-81
2022/12/12 07:39:14;;;;;;;0.70;0.70;;;;;;;-1.71;100.00;101565.69;10472412;28;20404;-81
2022/12/12 07:44:21;;;;;;;0.63;0.63;;;;;;;-1.94;100.00;101571.28;10472719;28;20052;-82
2022/12/12 07:49:23;;;;;;;0.32;0.30;;;;;;;-2.01;100.00;101572.38;10478263;28;20045;-82
2022/12/12 07:54:25;;;;;;;0.73;0.40;;;;;;;-1.97;100.00;101581.97;10461737;28;20040;-82
2022/12/12 07:59:26;;;;;;;0.20;0.20;;;;;;;-1.92;100.00;101583.28;10474787;28;20053;-81
2022/12/12 08:04:28;;;;;;;0.47;0.47;;;;;;;-1.86;100.00;101584.56;10460196;28;20040;-82
2022/12/12 08:09:30;;;;;;;0.60;0.60;;;;;;;-1.86;100.00;101595.53;10473664;28;20099;-82
2022/12/12 08:14:32;;;;;;;1.48;1.38;;;;;;;-2.05;100.00;101593.06;10473994;28;20068;-83
2022/12/12 08:19:34;;;;;;;0.57;0.57;;;;;;;-2.19;100.00;101591.84;10468293;28;20078;-83
2022/12/12 08:24:36;;;;;;;0.63;0.50;;;;;;;-2.36;100.00;101599.53;10477784;28;20498;-84
2022/12/12 08:29:38;;;;;;;0.75;0.75;;;;;;;-2.25;100.00;101603.94;10481176;28;20051;-84
2022/12/12 08:34:58;;;;;;;1.90;1.33;;;;;;;-2.36;100.00;101595.41;10483000;28;20086;-83
2022/12/12 08:40:00;;;;;;;0.57;0.57;;;;;;;-2.35;100.00;101607.28;10498639;28;20132;-83
2022/12/12 08:45:05;;;;;;;0.32;0.32;;;;;;;-2.30;100.00;101611.09;10483090;28;20040;-84
2022/12/12 08:50:14;;;;;;;0.28;0.28;;;;;;;-2.32;100.00;101606.66;10483382;28;20063;-83
2022/12/12 08:55:19;;;;;;;0.20;0.20;;;;;;;-2.29;100.00;101611.97;10482449;28;20041;-84
2022/12/12 09:00:21;;;;;;;0.57;0.57;;;;;;;-2.28;100.00;101613.75;10467922;28;20045;-84
2022/12/12 09:05:23;;;;;;;1.20;1.13;;;;;;;-2.26;100.00;101619.81;10454525;28;20049;-84
2022/12/12 09:10:29;;;;;;;1.00;0.95;;;;;;;-2.22;100.00;101618.47;10499474;28;20029;-83
2022/12/12 09:15:34;;;;;;;0.57;0.57;;;;;;;-2.24;100.00;101616.69;10494848;28;20072;-83
2022/12/12 09:20:36;;;;;;;0.47;0.38;;;;;;;-2.30;100.00;101628.75;10489621;28;20090;-83
2022/12/12 09:25:38;;;;;;;0.30;0.30;;;;;;;-2.17;100.00;101624.78;10472967;28;20135;-82
2022/12/12 09:30:43;;;;;;;1.08;1.05;;;;;;;-2.19;100.00;101613.66;10477521;28;20131;-82
2022/12/12 09:35:46;;;;;;;0.25;0.25;;;;;;;-2.20;100.00;101620.34;10453486;28;20048;-82
2022/12/12 09:40:55;;;;;;;0.75;0.75;;;;;;;-2.07;100.00;101615.63;10479287;28;20130;-83
2022/12/12 09:45:58;;;;;;;0.50;0.50;;;;;;;-2.11;100.00;101617.75;10465318;28;20044;-82
2022/12/12 09:51:00;;;;;;;0.10;0.10;;;;;;;-1.91;100.00;101611.94;10464601;28;20508;-82
2022/12/12 09:56:11;;;;;;;0.22;0.22;;;;;;;-1.82;100.00;101606.78;10479200;28;20032;-83
2022/12/12 10:01:27;;;;;;;0.85;0.70;;;;;;;-1.77;100.00;101603.91;10488807;28;20048;-82
2022/12/12 10:06:51;;;;;;;0.13;0.13;;;;;;;-1.80;100.00;101597.72;10492150;28;20093;-83
2022/12/12 10:11:54;;;;;;;0.52;0.52;;;;;;;-1.76;100.00;101587.16;10495717;28;20052;-83
2022/12/12 10:17:00;;;;;;;0.10;0.10;;;;;;;-1.64;100.00;101583.13;10494745;28;20040;-82
2022/12/12 10:22:33;;;;;;;0.88;0.85;;;;;;;-1.52;100.00;101574.81;10466588;28;20080;-82
2022/12/12 10:27:40;;;;;;;0.77;0.77;;;;;;;-1.53;100.00;101560.44;10465468;28;20036;-82
2022/12/12 10:33:00;;;;;;;2.33;0.40;;;;;;;-1.29;100.00;101554.03;10466828;28;20063;-82
2022/12/12 10:38:30;;;;;;;1.10;1.10;;;;;;;-1.22;100.00;101547.84;10472855;28;20058;-83
2022/12/12 10:44:02;;;;;;;1.40;1.30;;;;;;;-0.38;100.00;101523.50;10451332;28;20045;-83
2022/12/12 10:49:17;;;;;;;2.85;0.70;;;;;;;0.08;100.00;101449.38;10477632;28;20055;-83
2022/12/12 10:54:21;;;;;;;0.40;0.40;;;;;;;0.40;100.00;101418.00;10478451;28;20467;-83
2022/12/12 10:59:22;;;;;;;1.33;1.23;;;;;;;0.35;100.00;101392.28;10478869;28;20327;-83
2022/12/12 11:04:26;;;;;;;1.98;1.38;;;;;;;0.91;100.00;101376.06;10474165;28;20412;-83
2022/12/12 11:09:29;;;;;;;0.93;0.90;;;;;;;0.61;100.00;101350.22;10470339;28;20408;-83
2022/12/12 11:14:35;;;;;;;3.05;0.90;;;;;;;1.24;100.00;101337.00;10510572;28;20036;-83
2022/12/12 11:19:40;;;;;;;0.43;0.43;;;;;;;1.53;100.00;101307.66;10477820;28;20128;-84
2022/12/12 11:24:45;;;;;;;0.82;0.47;;;;;;;1.12;100.00;101305.69;10454187;28;20045;-84
2022/12/12 11:30:21;;;;;;;0.82;0.82;;;;;;;1.49;100.00;101308.25;10473886;28;20044;-84
2022/12/12 11:35:28;;;;;;;2.20;0.75;;;;;;;1.86;100.00;101308.22;10482389;28;20047;-85
2022/12/12 11:40:33;;;;;;;0.57;0.52;;;;;;;1.72;100.00;101311.47;10475615;28;20049;-85
2022/12/12 11:45:35;;;;;;;4.55;1.60;;;;;;;1.96;100.00;101307.16;10484514;28;20095;-85
2022/12/12 11:50:44;;;;;;;1.33;1.23;;;;;;;1.72;100.00;101301.31;10484122;28;20040;-85
2022/12/12 11:55:49;;;;;;;3.03;2.50;;;;;;;1.73;100.00;101290.38;10484652;28;20106;-84
2022/12/12 12:01:29;;;;;;;0.45;0.45;;;;;;;1.67;100.00;101287.44;10483454;28;20048;-84
2022/12/12 12:06:47;;;;;;;2.33;1.30;;;;;;;1.78;100.00;101283.94;10316124;28;20046;-83
2022/12/12 12:12:10;;;;;;;0.63;0.32;;;;;;;2.50;100.00;101276.78;10450813;28;20060;-84
2022/12/12 12:17:27;;;;;;;0.75;0.63;;;;;;;1.40;100.00;101279.66;10469696;28;20123;-83
2022/12/12 12:22:57;;;;;;;0.22;0.22;;;;;;;1.90;100.00;101288.97;10482584;28;20058;-83
2022/12/12 12:27:58;;;;;;;0.98;0.98;;;;;;;2.33;100.00;101285.88;10482972;28;20488;-83
2022/12/12 12:33:19;;;;;;;0.57;0.30;;;;;;;2.27;100.00;101290.56;10480236;28;20045;-83
2022/12/12 12:38:36;;;;;;;0.98;0.77;;;;;;;1.14;100.00;101294.00;10475616;28;20044;-83
2022/12/12 12:43:46;;;;;;;0.95;0.63;;;;;;;2.06;100.00;101281.59;10482515;28;20048;-85
2022/12/12 12:48:53;;;;;;;0.63;0.47;;;;;;;1.46;100.00;101275.00;10475326;28;20043;-84
2022/12/12 12:54:07;;;;;;;1.65;0.43;;;;;;;2.09;100.00;101282.56;10485641;28;20046;-82
2022/12/12 12:59:13;;;;;;;0.32;0.30;;;;;;;1.38;100.00;101283.75;10510478;28;20079;-82
2022/12/12 13:04:34;;;;;;;0.75;0.70;;;;;;;1.14;100.00;101283.84;10485962;28;20136;-81
2022/12/12 13:09:56;;;;;;;;;;;;;;;1.61;100.00;101281.91;10485225;28;20067;-81
2022/12/12 13:15:01;;;;;;;;;;;;;;;1.60;100.00;101275.09;10468018;28;19927;-82
2022/12/12 13:20:03;;;;;;;0.50;0.50;;;;;;;1.32;100.00;101268.09;10474415;28;19928;-82
2022/12/12 13:25:22;;;;;;;0.10;0.10;;;;;;;1.59;100.00;101264.03;10442915;28;20045;-81
2022/12/12 13:31:03;;;;;;;1.05;0.93;;;;;;;2.03;100.00;101258.50;10493030;28;20044;-82
2022/12/12 13:36:42;;;;;;;0.00;0.00;;;;;;;1.71;100.00;101262.31;10278601;28;20039;-81
2022/12/12 13:42:09;;;;;;;0.10;0.10;;;;;;;1.41;100.00;101256.03;10449123;28;20056;-81
2022/12/12 13:47:20;;;;;;;0.22;0.22;;;;;;;1.18;100.00;101257.88;10483344;28;20040;-81
2022/12/12 13:52:31;;;;;;;0.10;0.10;;;;;;;0.89;100.00;101256.72;10483228;28;20056;-80
2022/12/12 14:04:29;;;;;;;0.17;0.17;;;;;;;0.21;100.00;101274.66;10500501;28;20029;-83
2022/12/12 14:09:36;;;;;;;0.20;0.20;;;;;;;0.10;100.00;101283.16;10458845;28;20041;-83
2022/12/12 14:14:56;;;;;;;0.10;0.10;;;;;;;-0.22;100.00;101289.22;10479362;28;20037;-83
2022/12/12 14:19:59;;;;;;;0.57;0.57;;;;;;;-0.26;100.00;101292.28;10476649;28;20248;-83
2022/12/12 14:25:13;;;;;;;0.55;0.47;;;;;;;-0.35;100.00;101294.97;10479836;28;20094;-83
2022/12/12 14:30:20;;;;;;;0.05;0.05;;;;;;;-0.47;100.00;101292.41;10457569;28;20052;-83
2022/12/12 14:35:40;;;;;;;0.10;0.10;;;;;;;-0.53;100.00;101302.06;10445399;28;20567;-83
2022/12/12 14:40:48;;;;;;;1.13;0.30;;;;;;;-0.45;100.00;101295.94;10462481;28;20044;-83
2022/12/12 14:45:54;;;;;;;0.47;0.20;;;;;;;-0.56;100.00;101285.00;10477651;28;20541;-82
2022/12/12 14:51:21;;;;;;;0.08;0.08;;;;;;;-0.77;100.00;101290.94;10471725;28;20049;-82
2022/12/12 14:56:40;;;;;;;0.43;0.40;;;;;;;-0.85;100.00;101305.50;10515665;28;20041;-81
2022/12/12 15:01:55;;;;;;;0.05;0.05;;;;;;;-0.88;100.00;101308.66;10484418;28;20032;-82
2022/12/12 15:07:00;;;;;;;1.02;0.77;;;;;;;-1.11;100.00;101324.56;10472422;28;20048;-82
2022/12/12 15:12:08;;;;;;;0.08;0.08;;;;;;;-1.03;100.00;101331.13;10477985;28;20458;-83
2022/12/12 15:17:21;;;;;;;0.00;0.00;;;;;;;-1.22;100.00;101340.50;10465510;28;20041;-83
2022/12/12 15:22:29;;;;;;;0.10;0.10;;;;;;;-1.37;100.00;101340.16;10488482;28;20537;-82
2022/12/12 15:27:35;;;;;;;0.00;0.00;;;;;;;-1.35;100.00;101343.72;10483356;28;20036;-82
2022/12/12 15:32:47;;;;;;;0.00;0.00;;;;;;;-1.40;100.00;101340.81;10477885;28;20098;-82
2022/12/12 15:38:00;;;;;;;0.25;0.25;;;;;;;-1.52;100.00;101355.84;10476757;28;20075;-82
2022/12/12 15:43:05;;;;;;;0.00;0.00;;;;;;;-1.78;100.00;101361.28;10477847;28;20064;-83
2022/12/12 15:48:14;;;;;;;0.80;0.80;;;;;;;-2.10;100.00;101367.94;10471354;28;20068;-82
2022/12/12 15:53:21;;;;;;;0.30;0.30;;;;;;;-2.15;100.00;101398.59;10480705;28;20052;-83
2022/12/12 15:58:44;;;;;;;0.20;0.20;;;;;;;-2.33;100.00;101411.41;10493640;28;20457;-83
2022/12/12 16:04:07;;;;;;;0.28;0.28;;;;;;;-2.25;100.00;101412.97;10506367;28;20044;-83
2022/12/12 16:09:25;;;;;;;0.00;0.00;;;;;;;-2.57;100.00;101428.72;10450133;28;20052;-83
2022/12/12 16:14:39;;;;;;;1.25;0.75;;;;;;;-2.80;100.00;101438.47;10465744;28;20040;-83
2022/12/12 16:19:45;;;;;;;0.60;0.60;;;;;;;-2.97;100.00;101430.28;10488183;28;20079;-83
2022/12/12 16:24:50;;;;;;;0.00;0.00;;;;;;;-2.81;100.00;101437.56;10495685;28;20075;-82
2022/12/12 16:29:52;;;;;;;0.00;0.00;;;;;;;-2.91;100.00;101437.50;10458825;28;20516;-83
2022/12/12 16:34:53;;;;;;;0.00;0.00;;;;;;;-3.09;100.00;101439.28;10480634;28;20056;-83
2022/12/12 16:39:55;;;;;;;0.65;0.20;;;;;;;-3.13;100.00;101442.25;10485912;28;20499;-83
2022/12/12 16:44:57;;;;;;;0.00;0.00;;;;;;;-3.11;100.00;101451.72;10468909;28;20047;-83
2022/12/12 16:49:59;;;;;;;0.10;0.10;;;;;;;-3.14;100.00;101464.06;10472413;28;20132;-83
2022/12/12 16:55:00;;;;;;;0.00;0.00;;;;;;;-3.16;100.00;101462.16;10470017;28;20476;-83
2022/12/12 17:00:03;;;;;;;0.20;0.15;;;;;;;-3.15;100.00;101466.44;10486269;28;20454;-83
2022/12/12 17:05:06;;;;;;;0.15;0.15;;;;;;;-3.52;100.00;101474.94;10486679;28;20045;-82
2022/12/12 17:10:09;;;;;;;0.15;0.15;;;;;;;-3.44;100.00;101474.75;10497910;28;20067;-82
2022/12/12 17:15:16;;;;;;;0.32;0.32;;;;;;;-3.40;100.00;101486.91;10456750;28;20103;-83
2022/12/12 17:20:18;;;;;;;0.30;0.30;;;;;;;-3.45;100.00;101481.44;10458887;28;20044;-82
2022/12/12 17:25:23;;;;;;;2.90;1.45;;;;;;;-3.56;100.00;101485.50;10465306;28;20036;-82
2022/12/12 17:30:24;;;;;;;0.00;0.00;;;;;;;-3.72;100.00;101487.34;10445297;28;20063;-82
2022/12/12 17:35:26;;;;;;;0.47;0.47;;;;;;;-3.91;100.00;101490.66;10455273;28;20052;-82
2022/12/12 17:40:28;;;;;;;0.00;0.00;;;;;;;-3.73;100.00;101496.53;10475222;28;20127;-81
2022/12/12 17:45:56;;;;;;;1.48;0.82;;;;;;;-3.97;100.00;101490.09;10479574;28;20040;-82
2022/12/12 17:50:59;;;;;;;1.45;1.13;;;;;;;-4.13;100.00;101481.88;10509460;28;20564;-82
2022/12/12 17:56:04;;;;;;;0.30;0.20;;;;;;;-4.26;100.00;101480.69;10488542;28;20079;-82
2022/12/12 18:01:14;;;;;;;9.13;1.45;;;;;;;-4.18;100.00;101494.88;10471927;28;20416;-82
2022/12/12 18:06:17;;;;;;;0.68;0.68;;;;;;;-4.21;100.00;101484.56;10467138;28;20475;-82
2022/12/12 18:11:25;;;;;;;0.20;0.20;;;;;;;-4.50;100.00;101484.28;10459395;28;20152;-81
2022/12/12 18:16:29;;;;;;;3.00;1.00;;;;;;;-4.55;100.00;101490.50;10473897;28;20036;-82
2022/12/12 18:21:32;;;;;;;0.10;0.10;;;;;;;-4.66;100.00;101492.00;10464111;28;20128;-82
2022/12/12 18:26:56;;;;;;;1.33;1.23;;;;;;;-4.73;100.00;101487.13;10453746;28;20060;-81
2022/12/12 18:39:02;;;;;;;0.10;0.10;;;;;;;-4.78;100.00;101492.56;10543322;28;20028;-81
2022/12/12 18:44:07;;;;;;;0.20;0.20;;;;;;;-4.74;100.00;101495.41;10484880;28;20102;-82
2022/12/12 18:49:12;;;;;;;0.00;0.00;;;;;;;-4.98;100.00;101492.25;10477711;28;20496;-81
2022/12/12 18:54:15;;;;;;;0.43;0.43;;;;;;;-5.07;100.00;101501.41;10502558;28;20135;-81
2022/12/12 18:59:17;;;;;;;0.10;0.10;;;;;;;-4.94;100.00;101506.88;10480619;28;20083;-81
2022/12/12 19:04:18;;;;;;;0.52;0.52;;;;;;;-5.09;100.00;101498.75;10461407;28;20105;-81
2022/12/12 19:09:50;;;;;;;4.20;3.50;;;;;;;-5.11;100.00;101505.25;10504275;28;20047;-80
2022/12/12 19:14:52;;;;;;;2.55;2.35;;;;;;;-4.91;100.00;101513.88;10455717;28;20045;-80
2022/12/12 19:20:13;;;;;;;5.93;0.80;;;;;;;-5.15;100.00;101514.09;10491065;28;20071;-80
2022/12/12 19:25:17;;;;;;;0.20;0.20;;;;;;;-5.22;100.00;101506.69;10462328;28;20479;-80
2022/12/12 19:30:19;;;;;;;0.10;0.10;;;;;;;-5.29;100.00;101511.84;10472947;28;20056;-81
2022/12/12 19:35:21;;;;;;;0.00;0.00;;;;;;;-5.35;100.00;101509.63;10472829;28;20131;-80
2022/12/12 19:40:24;;;;;;;0.43;0.43;;;;;;;-5.32;100.00;101514.97;10490554;28;20044;-80
2022/12/12 19:45:28;;;;;;;0.10;0.10;;;;;;;-5.35;100.00;101513.75;10458531;28;20069;-81
2022/12/12 19:50:30;;;;;;;0.10;0.10;;;;;;;-5.44;100.00;101513.75;10494754;28;20052;-80
2022/12/12 19:55:32;;;;;;;0.10;0.10;;;;;;;-5.49;100.00;101514.88;10487764;28;20054;-80
2022/12/12 20:00:33;;;;;;;0.10;0.10;;;;;;;-5.63;100.00;101506.00;10479594;28;20053;-80
2022/12/12 20:05:35;;;;;;;0.30;0.30;;;;;;;-5.62;100.00;101515.31;10497056;28;20479;-81
2022/12/12 20:10:37;;;;;;;0.00;0.00;;;;;;;-5.57;100.00;101522.53;10499517;28;20048;-81
2022/12/12 20:15:39;;;;;;;0.00;0.00;;;;;;;-5.63;100.00;101521.06;10499766;28;20112;-79
2022/12/12 20:20:40;;;;;;;0.17;0.17;;;;;;;-5.80;100.00;101522.75;10481763;28;20045;-81
2022/12/12 20:25:43;;;;;;;0.40;0.40;;;;;;;-5.72;100.00;101525.16;10481390;28;20066;-80
2022/12/12 20:30:45;;;;;;;0.50;0.50;;;;;;;-5.78;100.00;101526.31;10469442;28;20052;-81
2022/12/12 20:35:53;;;;;;;0.47;0.30;;;;;;;-5.61;100.00;101532.13;10490059;28;20036;-81
2022/12/12 20:40:55;;;;;;;1.75;1.65;;;;;;;-5.74;100.00;101535.91;10486278;28;20084;-80
2022/12/12 20:45:56;;;;;;;1.67;1.58;;;;;;;-5.97;100.00;101542.72;10506396;28;20093;-80
2022/12/12 20:50:59;;;;;;;1.33;1.23;;;;;;;-5.80;100.00;101537.81;10492371;28;20408;-80
2022/12/12 20:56:09;;;;;;;1.15;1.10;;;;;;;-5.90;100.00;101542.63;10488940;28;20072;-78
2022/12/12 21:01:22;;;;;;;;;;;;;;;-6.04;100.00;101540.34;10488220;28;20044;-78
2022/12/12 21:06:27;;;;;;;1.27;0.73;;;;;;;-6.01;100.00;101540.69;10502226;28;19984;-79
2022/12/12 21:11:29;;;;;;;0.10;0.10;;;;;;;-6.02;100.00;101538.88;10497009;28;20048;-79
2022/12/12 21:16:34;;;;;;;0.22;0.15;;;;;;;-6.23;100.00;101540.97;10484697;28;20071;-78
2022/12/12 21:21:39;;;;;;;3.20;2.50;;;;;;;-6.18;100.00;101542.34;10473195;28;20068;-81
2022/12/12 21:26:41;;;;;;;5.47;2.58;;;;;;;-6.42;100.00;101535.66;10482571;28;20037;-81
2022/12/12 21:31:43;;;;;;;0.20;0.20;;;;;;;-6.35;100.00;101538.09;10476237;28;20040;-81
2022/12/12 21:36:53;;;;;;;0.10;0.10;;;;;;;-6.47;100.00;101522.66;10471914;28;20139;-81
2022/12/12 21:41:56;;;;;;;0.52;0.52;;;;;;;-6.50;100.00;101524.84;10486061;28;20056;-81
2022/12/12 21:46:59;;;;;;;0.10;0.10;;;;;;;-6.41;100.00;101528.31;10471751;28;20040;-80
2022/12/12 21:52:04;;;;;;;1.33;1.23;;;;;;;-6.35;100.00;101538.09;10492613;28;20558;-80
2022/12/12 21:57:06;;;;;;;0.65;0.65;;;;;;;-6.41;100.00;101532.44;10478868;28;20040;-81
2022/12/12 22:02:12;;;;;;;0.20;0.20;;;;;;;-6.44;100.00;101519.56;10476907;28;20075;-81
2022/12/12 22:07:14;;;;;;;0.10;0.10;;;;;;;-6.46;100.00;101523.53;10469186;28;20127;-81
2022/12/12 22:12:16;;;;;;;1.20;1.00;;;;;;;-6.55;100.00;101523.47;10477026;28;20079;-80
2022/12/12 22:17:19;;;;;;;3.28;2.70;;;;;;;-6.68;100.00;101535.47;10462281;28;20883;-80
2022/12/12 22:22:21;;;;;;;1.98;0.90;;;;;;;-6.71;100.00;101521.88;10482600;28;20068;-80
2022/12/12 22:27:23;;;;;;;0.70;0.70;;;;;;;-6.56;100.00;101531.72;10462780;28;20029;-80
2022/12/12 22:32:26;;;;;;;0.85;0.85;;;;;;;-6.65;100.00;101538.25;10464692;28;20033;-80
2022/12/12 22:37:29;;;;;;;0.10;0.10;;;;;;;-6.73;100.00;101597.63;10466892;28;20032;-80
2022/12/12 22:42:31;;;;;;;0.20;0.20;;;;;;;-6.67;100.00;101599.91;10466978;28;20045;-80
2022/12/12 22:47:33;;;;;;;0.45;0.45;;;;;;;-6.75;100.00;101602.47;10462756;28;20109;-79
2022/12/12 22:52:34;;;;;;;0.00;0.00;;;;;;;-6.74;100.00;101600.84;10469812;28;20052;-80
2022/12/12 22:57:36;;;;;;;0.05;0.05;;;;;;;-6.85;100.00;101597.22;10482008;28;20032;-80
2022/12/12 23:02:38;;;;;;;0.68;0.45;;;;;;;-6.81;100.00;101594.28;10467590;28;20047;-79
2022/12/12 23:07:39;;;;;;;0.55;0.43;;;;;;;-6.73;100.00;101592.59;10472327;28;20110;-79
2022/12/12 23:12:41;;;;;;;0.10;0.10;;;;;;;-6.73;100.00;101588.47;10463010;28;20079;-80
2022/12/12 23:17:42;;;;;;;0.70;0.70;;;;;;;-6.83;100.00;101590.75;10453422;28;20040;-80
2022/12/12 23:22:45;;;;;;;0.00;0.00;;;;;;;-6.87;100.00;101594.53;10462564;28;20462;-80
2022/12/12 23:27:46;;;;;;;0.10;0.10;;;;;;;-6.90;100.00;101585.81;10437339;28;20135;-79
2022/12/12 23:32:48;;;;;;;1.60;1.50;;;;;;;-6.95;100.00;101584.41;10483866;28;20040;-79
2022/12/12 23:37:52;;;;;;;0.00;0.00;;;;;;;-6.95;100.00;101575.31;10467984;28;20492;-81
2022/12/12 23:42:53;;;;;;;0.10;0.10;;;;;;;-6.96;100.00;101573.50;10469818;28;20037;-80
2022/12/12 23:47:55;;;;;;;1.90;1.25;;;;;;;-7.00;100.00;101578.94;10485872;28;20044;-80
2022/12/12 23:52:57;;;;;;;0.28;0.28;;;;;;;-7.10;100.00;101573.66;10482872;28;20151;-80